createdAt,value
2022-10-18T00:01:18.517Z,100.00
2022-10-18T00:05:20.410Z,100.00
2022-10-18T00:09:22.052Z,100.00
2022-10-18T00:13:24.212Z,100.00
2022-10-18T00:17:25.945Z,100.00
2022-10-18T00:21:27.913Z,100.00
2022-10-18T00:25:29.579Z,100.00
2022-10-18T00:29:31.278Z,100.00
2022-10-18T00:33:32.904Z,100.00
2022-10-18T00:37:35.548Z,100.00
2022-10-18T00:41:38.370Z,100.00
2022-10-18T00:45:40.202Z,100.00
2022-10-18T00:50:04.855Z,100.00
2022-10-18T00:54:06.742Z,100.00
2022-10-18T00:58:09.806Z,100.00
2022-10-18T01:02:15.004Z,100.00
2022-10-18T01:06:16.738Z,100.00
2022-10-18T01:10:36.065Z,100.00
2022-10-18T01:15:10.304Z,100.00
2022-10-18T01:19:34.076Z,100.00
2022-10-18T01:23:50.754Z,100.00
2022-10-18T01:28:10.738Z,100.00
2022-10-18T01:32:27.265Z,100.00
2022-10-18T01:36:33.225Z,100.00
2022-10-18T01:40:37.003Z,100.00
2022-10-18T01:44:41.335Z,100.00
2022-10-18T01:48:43.238Z,100.00
2022-10-18T01:52:51.900Z,100.00
2022-10-18T01:57:11.848Z,100.00
2022-10-18T02:01:32.070Z,100.00
2022-10-18T02:06:04.163Z,100.00
2022-10-18T02:14:38.371Z,100.00
2022-10-18T02:18:44.549Z,100.00
2022-10-18T02:22:49.189Z,100.00
2022-10-18T02:26:50.868Z,100.00
2022-10-18T02:31:15.608Z,100.00
2022-10-18T02:35:21.923Z,100.00
2022-10-18T02:39:29.657Z,100.00
2022-10-18T02:43:31.343Z,100.00
2022-10-18T02:47:33.339Z,100.00
2022-10-18T02:51:35.322Z,100.00
2022-10-18T02:55:36.974Z,100.00
2022-10-18T02:59:38.696Z,100.00
2022-10-18T03:03:40.397Z,100.00
2022-10-18T03:07:42.077Z,100.00
2022-10-18T03:11:43.818Z,100.00
2022-10-18T03:15:46.380Z,100.00
2022-10-18T03:19:48.068Z,100.00
2022-10-18T03:23:49.755Z,100.00
2022-10-18T03:27:51.529Z,100.00
2022-10-18T03:31:53.139Z,100.00
2022-10-18T03:35:54.860Z,100.00
2022-10-18T03:39:56.492Z,100.00
2022-10-18T03:43:58.186Z,100.00
2022-10-18T03:47:59.947Z,100.00
2022-10-18T03:52:01.594Z,100.00
2022-10-18T03:56:03.433Z,100.00
2022-10-18T04:00:05.670Z,100.00
2022-10-18T04:04:13.567Z,100.00
2022-10-18T04:08:15.856Z,100.00
2022-10-18T04:12:17.496Z,100.00
2022-10-18T04:16:19.233Z,100.00
2022-10-18T04:20:20.861Z,100.00
2022-10-18T04:24:22.634Z,100.00
2022-10-18T04:28:24.423Z,100.00
2022-10-18T04:32:28.726Z,100.00
2022-10-18T04:36:31.632Z,100.00
2022-10-18T04:40:33.329Z,100.00
2022-10-18T04:44:35.062Z,100.00
2022-10-18T04:48:36.709Z,100.00
2022-10-18T04:52:38.482Z,100.00
2022-10-18T04:56:40.302Z,100.00
2022-10-18T05:00:42.267Z,100.00
2022-10-18T05:04:44.100Z,100.00
2022-10-18T05:08:46.054Z,100.00
2022-10-18T05:12:47.722Z,100.00
2022-10-18T05:16:49.442Z,100.00
2022-10-18T05:20:51.084Z,100.00
2022-10-18T05:24:52.808Z,100.00
2022-10-18T05:28:54.588Z,100.00
2022-10-18T05:32:56.281Z,100.00
2022-10-18T05:36:58.483Z,100.00
2022-10-18T05:41:04.272Z,100.00
2022-10-18T05:45:06.389Z,100.00
2022-10-18T05:49:08.240Z,100.00
2022-10-18T05:53:12.757Z,100.00
2022-10-18T05:57:32.927Z,100.00
2022-10-18T06:01:34.761Z,100.00
2022-10-18T06:05:36.547Z,100.00
2022-10-18T06:09:38.998Z,100.00
2022-10-18T06:13:45.474Z,100.00
2022-10-18T06:17:47.161Z,100.00
2022-10-18T06:21:49.028Z,100.00
2022-10-18T06:25:50.729Z,100.00
2022-10-18T06:29:52.402Z,100.00
2022-10-18T06:33:57.045Z,100.00
2022-10-18T06:37:58.683Z,100.00
2022-10-18T06:42:00.373Z,100.00
2022-10-18T06:46:06.819Z,100.00
2022-10-18T06:50:09.015Z,100.00
2022-10-18T06:54:18.110Z,100.00
2022-10-18T06:58:20.324Z,100.00
2022-10-18T07:02:21.966Z,100.00
2022-10-18T07:06:24.514Z,100.00
2022-10-18T07:10:26.208Z,100.00
2022-10-18T07:14:29.164Z,100.00
2022-10-18T07:18:31.076Z,100.00
2022-10-18T07:22:34.115Z,100.00
2022-10-18T07:26:35.909Z,100.00
2022-10-18T07:30:37.600Z,100.00
2022-10-18T07:34:39.260Z,100.00
2022-10-18T07:38:41.220Z,100.00
2022-10-18T07:42:42.940Z,100.00
2022-10-18T07:46:44.623Z,100.00
2022-10-18T07:50:46.346Z,100.00
2022-10-18T07:59:11.322Z,100.00
2022-10-18T08:03:13.033Z,100.00
2022-10-18T08:07:14.757Z,100.00
2022-10-18T08:11:19.577Z,100.00
2022-10-18T08:15:24.957Z,100.00
2022-10-18T08:19:26.593Z,100.00
2022-10-18T08:23:28.690Z,100.00
2022-10-18T08:27:30.581Z,100.00
2022-10-18T08:31:32.430Z,100.00
2022-10-18T08:35:34.177Z,100.00
2022-10-18T08:39:35.877Z,100.00
2022-10-18T08:43:44.698Z,100.00
2022-10-18T08:47:49.961Z,100.00
2022-10-18T08:51:52.324Z,100.00
2022-10-18T08:56:03.841Z,100.00
2022-10-18T09:00:15.733Z,100.00
2022-10-18T09:04:39.049Z,100.00
2022-10-18T09:08:43.491Z,100.00
2022-10-18T09:13:07.278Z,100.00
2022-10-18T09:17:15.837Z,100.00
2022-10-18T09:21:30.719Z,99.91
2022-10-18T09:25:48.975Z,99.55
2022-10-18T09:30:03.417Z,99.31
2022-10-18T09:34:10.855Z,98.54
2022-10-18T09:38:19.533Z,97.30
2022-10-18T09:42:28.711Z,96.80
2022-10-18T09:46:36.774Z,95.54
2022-10-18T09:50:44.744Z,95.06
2022-10-18T09:54:56.122Z,94.35
2022-10-18T09:58:57.811Z,93.67
2022-10-18T10:03:01.734Z,92.43
2022-10-18T10:07:08.677Z,91.78
2022-10-18T10:11:33.407Z,91.21
2022-10-18T10:15:38.315Z,90.20
2022-10-18T10:20:04.382Z,89.60
2022-10-18T10:24:06.373Z,89.26
2022-10-18T10:28:16.504Z,88.73
2022-10-18T10:32:20.376Z,87.57
2022-10-18T10:36:22.026Z,86.64
2022-10-18T10:40:28.672Z,84.16
2022-10-18T10:44:35.915Z,82.62
2022-10-18T10:49:21.625Z,81.43
2022-10-18T10:53:29.895Z,80.86
2022-10-18T10:57:34.367Z,80.43
2022-10-18T11:01:36.665Z,80.32
2022-10-18T11:05:50.237Z,79.87
2022-10-18T11:10:10.199Z,79.07
2022-10-18T11:14:32.185Z,79.04
2022-10-18T11:18:36.816Z,76.79
2022-10-18T11:22:45.179Z,75.53
2022-10-18T11:27:28.059Z,73.17
2022-10-18T11:31:48.484Z,74.08
2022-10-18T11:36:00.204Z,74.55
2022-10-18T11:40:23.599Z,73.51
2022-10-18T11:44:52.233Z,73.92
2022-10-18T11:49:07.716Z,74.36
2022-10-18T11:53:25.540Z,73.55
2022-10-18T11:58:05.929Z,73.09
2022-10-18T12:02:32.282Z,73.46
2022-10-18T12:06:38.874Z,74.58
2022-10-18T12:11:04.175Z,74.60
2022-10-18T12:15:16.375Z,74.94
2022-10-18T12:19:27.079Z,75.07
2022-10-18T12:23:29.119Z,75.35
2022-10-18T12:27:41.021Z,75.27
2022-10-18T12:31:50.470Z,74.98
2022-10-18T12:36:06.032Z,74.75
2022-10-18T12:40:31.642Z,73.43
2022-10-18T12:44:35.637Z,73.39
2022-10-18T12:48:42.663Z,72.33
2022-10-18T12:52:44.511Z,71.97
2022-10-18T12:56:47.728Z,71.91
2022-10-18T13:00:49.422Z,72.15
2022-10-18T13:04:51.237Z,72.89
2022-10-18T13:09:19.922Z,71.48
2022-10-18T13:13:40.814Z,71.04
2022-10-18T13:18:01.982Z,70.77
2022-10-18T13:22:28.696Z,71.19
2022-10-18T13:27:04.209Z,70.62
2022-10-18T13:31:26.187Z,71.11
2022-10-18T13:35:51.224Z,71.35
2022-10-18T13:40:24.319Z,71.23
2022-10-18T13:44:40.416Z,71.62
2022-10-18T13:48:52.974Z,71.94
2022-10-18T13:53:27.866Z,72.37
2022-10-18T13:57:41.719Z,72.41
2022-10-18T14:01:53.299Z,72.35
2022-10-18T14:06:03.792Z,71.23
2022-10-18T14:10:11.325Z,71.78
2022-10-18T14:14:30.006Z,71.60
2022-10-18T14:18:34.835Z,71.50
2022-10-18T14:22:53.270Z,71.15
2022-10-18T14:27:19.322Z,71.15
2022-10-18T14:31:21.118Z,71.72
2022-10-18T14:35:33.782Z,71.76
2022-10-18T14:39:38.571Z,71.52
2022-10-18T14:43:40.342Z,72.00
2022-10-18T14:47:42.070Z,71.77
2022-10-18T14:51:45.454Z,71.39
2022-10-18T14:56:00.962Z,71.61
2022-10-18T15:00:08.586Z,72.39
2022-10-18T15:04:11.963Z,72.74
2022-10-18T15:08:13.687Z,73.48
2022-10-18T15:12:16.248Z,73.88
2022-10-18T15:16:20.233Z,74.13
2022-10-18T15:20:33.580Z,74.69
2022-10-18T15:24:40.830Z,74.96
2022-10-18T15:28:51.114Z,75.40
2022-10-18T15:32:56.579Z,75.57
2022-10-18T15:36:58.358Z,75.56
2022-10-18T15:41:00.210Z,76.09
2022-10-18T15:45:01.929Z,76.35
2022-10-18T15:49:25.452Z,76.32
2022-10-18T15:53:35.146Z,76.70
2022-10-18T15:57:37.933Z,76.71
2022-10-18T16:01:44.529Z,76.67
2022-10-18T16:05:46.352Z,76.47
2022-10-18T16:09:48.042Z,76.39
2022-10-18T16:13:53.050Z,76.72
2022-10-18T16:17:57.158Z,76.84
2022-10-18T16:22:05.231Z,77.62
2022-10-18T16:26:09.109Z,77.79
2022-10-18T16:30:14.275Z,78.00
2022-10-18T16:34:15.988Z,78.10
2022-10-18T16:38:29.907Z,78.75
2022-10-18T16:42:34.594Z,79.04
2022-10-18T16:46:37.162Z,79.43
2022-10-18T16:50:38.874Z,79.73
2022-10-18T16:54:40.538Z,80.36
2022-10-18T16:58:42.658Z,80.70
2022-10-18T17:02:44.658Z,81.18
2022-10-18T17:06:47.649Z,81.46
2022-10-18T17:10:52.997Z,81.88
2022-10-18T17:14:54.690Z,82.10
2022-10-18T17:18:58.749Z,82.15
2022-10-18T17:23:00.821Z,82.67
2022-10-18T17:27:02.480Z,82.79
2022-10-18T17:31:06.603Z,83.02
2022-10-18T17:35:08.573Z,83.04
2022-10-18T17:39:11.238Z,83.11
2022-10-18T17:43:13.961Z,83.71
2022-10-18T17:47:15.765Z,83.62
2022-10-18T17:51:17.947Z,83.93
2022-10-18T17:55:19.644Z,84.14
2022-10-18T17:59:21.372Z,84.36
2022-10-18T18:03:23.193Z,84.87
2022-10-18T18:07:25.066Z,84.82
2022-10-18T18:11:27.698Z,85.43
2022-10-18T18:15:29.383Z,85.76
2022-10-18T18:19:31.693Z,86.17
2022-10-18T18:23:33.373Z,86.71
2022-10-18T18:27:35.224Z,86.89
2022-10-18T18:31:41.290Z,86.82
2022-10-18T18:35:53.561Z,87.31
2022-10-18T18:39:55.225Z,87.21
2022-10-18T18:44:00.436Z,87.12
2022-10-18T18:48:02.089Z,87.25
2022-10-18T18:52:03.959Z,87.64
2022-10-18T18:56:08.311Z,87.76
2022-10-18T19:00:12.689Z,88.08
2022-10-18T19:04:14.508Z,88.26
2022-10-18T19:08:16.144Z,88.29
2022-10-18T19:12:20.606Z,88.27
2022-10-18T19:16:23.138Z,88.55
2022-10-18T19:20:24.885Z,88.79
2022-10-18T19:24:28.755Z,89.00
2022-10-18T19:28:30.468Z,89.00
2022-10-18T19:32:32.134Z,89.38
2022-10-18T19:36:35.094Z,89.47
2022-10-18T19:40:36.746Z,89.85
2022-10-18T19:44:39.692Z,89.83
2022-10-18T19:48:41.376Z,89.69
2022-10-18T19:52:43.042Z,89.98
2022-10-18T19:56:44.810Z,90.01
2022-10-18T20:00:52.336Z,90.25
2022-10-18T20:04:54.041Z,90.13
2022-10-18T20:08:56.160Z,90.53
2022-10-18T20:12:57.892Z,90.62
2022-10-18T20:16:59.592Z,90.90
2022-10-18T20:21:07.709Z,91.00
2022-10-18T20:25:09.628Z,90.83
2022-10-18T20:29:11.412Z,91.00
2022-10-18T20:33:13.199Z,91.02
2022-10-18T20:37:14.916Z,91.51
2022-10-18T20:41:26.087Z,91.30
2022-10-18T20:45:27.778Z,91.68
2022-10-18T20:49:29.470Z,91.68
2022-10-18T20:53:31.338Z,91.75
2022-10-18T20:57:36.383Z,92.11
2022-10-18T21:01:39.464Z,91.89
2022-10-18T21:05:41.254Z,91.92
2022-10-18T21:09:42.952Z,91.93
2022-10-18T21:13:44.606Z,92.09
2022-10-18T21:17:51.345Z,92.18
2022-10-18T21:21:56.239Z,92.40
2022-10-18T21:25:57.941Z,92.30
2022-10-18T21:29:59.816Z,92.31
2022-10-18T21:34:05.255Z,92.70
2022-10-18T21:38:06.919Z,92.47
2022-10-18T21:42:08.841Z,92.47
2022-10-18T21:46:12.002Z,92.56
2022-10-18T21:50:14.147Z,92.29
2022-10-18T21:54:16.387Z,92.71
2022-10-18T21:58:18.093Z,92.64
2022-10-18T22:02:19.824Z,92.73
2022-10-18T22:06:22.365Z,92.32
2022-10-18T22:10:24.078Z,92.44
2022-10-18T22:14:25.777Z,92.50
2022-10-18T22:18:27.420Z,92.39
2022-10-18T22:22:29.113Z,92.28
2022-10-18T22:26:36.796Z,91.93
2022-10-18T22:30:38.894Z,92.28
2022-10-18T22:34:40.678Z,91.98
2022-10-18T22:38:42.334Z,92.16
2022-10-18T22:42:43.977Z,91.89
2022-10-18T22:46:45.670Z,91.61
2022-10-18T22:50:47.325Z,91.43
2022-10-18T22:54:49.131Z,91.51
2022-10-18T22:58:51.062Z,91.67
2022-10-18T23:02:52.736Z,91.14
2022-10-18T23:06:54.463Z,91.20
2022-10-18T23:10:58.485Z,91.65
2022-10-18T23:15:00.123Z,91.77
2022-10-18T23:19:01.822Z,91.63
2022-10-18T23:23:03.506Z,91.64
2022-10-18T23:27:05.151Z,91.38
2022-10-18T23:31:12.758Z,91.71
2022-10-18T23:35:14.555Z,91.84
2022-10-18T23:39:16.290Z,92.11
